Time;durP1;ratioP1;P1;durP2;ratioP2;P2;SDS_P1;SDS_P2;PMS_P1;PMS_P2;Temp;Humidity;BMP_temperature;BMP_pressure;BME280_temperature;BME280_humidity;BME280_pressure;Samples;Min_cycle;Max_cycle;Signal;HPM_P1;HPM_P2
2023/09/15 00:01:41;;;;;;;6.32;3.20;;;;;;;-141.50;100.00;63355.56;5029112;28;20277;-78
2023/09/15 00:04:12;;;;;;;3.90;2.72;;;;;;;-141.50;100.00;63355.56;5025494;28;20139;-79
2023/09/15 00:06:40;;;;;;;5.43;3.15;;;;;;;-141.50;100.00;63355.56;5027768;28;20041;-79
2023/09/15 00:09:14;;;;;;;4.82;2.95;;;;;;;-141.50;100.00;63355.56;5035528;28;20373;-80
2023/09/15 00:11:42;;;;;;;5.20;2.83;;;;;;;-141.50;100.00;63355.56;5032454;28;20057;-78
2023/09/15 00:14:11;;;;;;;5.95;3.45;;;;;;;-141.50;100.00;63355.56;5035092;28;20523;-80
2023/09/15 00:16:40;;;;;;;6.75;3.10;;;;;;;-141.50;100.00;63355.56;5026916;28;20046;-79
2023/09/15 00:19:13;;;;;;;5.85;3.28;;;;;;;-141.50;100.00;63355.56;5027237;28;20049;-79
2023/09/15 00:21:40;;;;;;;5.80;3.40;;;;;;;-141.50;100.00;63355.56;5033426;28;20466;-79
2023/09/15 00:24:08;;;;;;;6.80;3.33;;;;;;;-141.50;100.00;63355.56;5032137;28;20042;-79
2023/09/15 00:26:34;;;;;;;7.53;3.95;;;;;;;-141.50;100.00;63355.56;5030526;28;20045;-80
2023/09/15 00:29:02;;;;;;;6.38;3.88;;;;;;;-141.50;100.00;63355.56;5033023;28;20634;-79
2023/09/15 00:31:29;;;;;;;5.55;3.90;;;;;;;-141.50;100.00;63355.56;5017275;28;20472;-79
2023/09/15 00:33:56;;;;;;;7.28;3.97;;;;;;;-141.50;100.00;63355.56;5041279;28;20487;-79
2023/09/15 00:36:23;;;;;;;6.40;4.05;;;;;;;-141.50;100.00;63355.56;5030399;28;20399;-78
2023/09/15 00:38:50;;;;;;;6.07;3.80;;;;;;;-141.50;100.00;63355.56;5032342;28;20042;-78
2023/09/15 00:41:17;;;;;;;7.97;3.90;;;;;;;-141.50;100.00;63355.56;5031614;28;20423;-79
2023/09/15 00:43:44;;;;;;;7.28;3.78;;;;;;;-141.50;100.00;63355.56;5055563;28;20068;-79
2023/09/15 00:46:12;;;;;;;6.90;4.03;;;;;;;-141.50;100.00;63355.56;5027633;28;20136;-78
2023/09/15 00:48:40;;;;;;;5.82;3.58;;;;;;;-141.50;100.00;63355.56;5047615;28;20052;-78
2023/09/15 00:51:07;;;;;;;7.05;3.58;;;;;;;-141.50;100.00;63355.56;5051292;28;20029;-78
2023/09/15 00:53:38;;;;;;;7.07;3.40;;;;;;;-141.50;100.00;63355.56;5034832;28;20042;-78
2023/09/15 00:56:08;;;;;;;7.18;3.30;;;;;;;-141.50;100.00;63355.56;5051685;28;20791;-77
2023/09/15 00:58:39;;;;;;;4.32;3.00;;;;;;;-141.50;100.00;63355.56;5050926;28;20049;-79
2023/09/15 01:01:08;;;;;;;8.07;3.50;;;;;;;-141.50;100.00;63355.56;5067063;28;20064;-78
2023/09/15 01:03:39;;;;;;;5.95;3.33;;;;;;;-141.50;100.00;63355.56;5043424;28;20254;-79
2023/09/15 01:06:08;;;;;;;5.38;3.05;;;;;;;-141.50;100.00;63355.56;5042128;28;20045;-79
2023/09/15 01:08:37;;;;;;;5.68;3.25;;;;;;;-141.50;100.00;63355.56;5029052;28;20265;-78
2023/09/15 01:11:05;;;;;;;5.30;3.00;;;;;;;-141.50;100.00;63355.56;5042177;28;20072;-78
2023/09/15 01:13:35;;;;;;;4.60;2.83;;;;;;;-141.50;100.00;63355.56;5030820;28;20304;-79
2023/09/15 01:16:39;;;;;;;5.40;2.85;;;;;;;-141.50;100.00;63355.56;5031141;28;20057;-78
2023/09/15 01:19:10;;;;;;;5.90;3.17;;;;;;;-141.50;100.00;63355.56;5011408;28;20245;-78
2023/09/15 01:22:03;;;;;;;5.35;3.05;;;;;;;-141.50;100.00;63355.56;5044522;28;20230;-79
2023/09/15 01:24:55;;;;;;;3.72;2.47;;;;;;;-141.50;100.00;63355.56;5026180;28;20106;-79
2023/09/15 01:27:46;;;;;;;4.20;2.42;;;;;;;-141.50;100.00;63355.56;5039412;28;20440;-79
2023/09/15 01:30:13;;;;;;;5.18;3.10;;;;;;;-141.50;100.00;63355.56;5025261;28;20053;-78
2023/09/15 01:32:42;;;;;;;3.25;2.25;;;;;;;-141.50;100.00;63355.56;5023394;28;20041;-78
2023/09/15 01:35:09;;;;;;;4.80;2.58;;;;;;;-141.50;100.00;63355.56;5021351;28;20420;-78
2023/09/15 01:37:36;;;;;;;4.32;2.58;;;;;;;-141.50;100.00;63355.56;5001008;28;20072;-78
2023/09/15 01:40:05;;;;;;;3.55;2.50;;;;;;;-141.50;100.00;63355.56;5027815;28;20042;-78
2023/09/15 01:42:32;;;;;;;4.18;2.47;;;;;;;-141.50;100.00;63355.56;5044493;28;20080;-79
2023/09/15 01:44:59;;;;;;;3.88;2.60;;;;;;;-141.50;100.00;63355.56;5030704;28;20045;-80
2023/09/15 01:47:29;;;;;;;4.68;2.70;;;;;;;-141.50;100.00;63355.56;5026538;28;20049;-79
2023/09/15 01:49:56;;;;;;;4.75;2.92;;;;;;;-141.50;100.00;63355.56;5013852;28;20049;-79
2023/09/15 01:52:24;;;;;;;5.25;3.00;;;;;;;-141.50;100.00;63355.56;5021082;28;20043;-79
2023/09/15 01:54:53;;;;;;;4.72;2.78;;;;;;;-141.50;100.00;63355.56;5024495;28;20304;-79
2023/09/15 01:57:20;;;;;;;5.47;3.17;;;;;;;-141.50;100.00;63355.56;5027109;28;20049;-79
2023/09/15 01:59:47;;;;;;;6.00;2.83;;;;;;;-141.50;100.00;63355.56;5030432;28;20447;-79
2023/09/15 02:02:13;;;;;;;6.35;3.25;;;;;;;-141.50;100.00;63355.56;5032809;28;20053;-80
2023/09/15 02:04:41;;;;;;;4.85;2.80;;;;;;;-141.50;100.00;63355.56;5033469;28;20041;-79
2023/09/15 02:07:08;;;;;;;4.68;2.70;;;;;;;-141.50;100.00;63355.56;5025527;28;20172;-79
2023/09/15 02:09:35;;;;;;;5.03;2.95;;;;;;;-141.50;100.00;63355.56;5034018;28;20053;-79
2023/09/15 02:12:02;;;;;;;6.13;3.10;;;;;;;-141.50;100.00;63355.56;5031044;28;20806;-79
2023/09/15 02:14:29;;;;;;;4.90;2.85;;;;;;;-141.50;100.00;63355.56;5031268;28;20569;-79
2023/09/15 02:16:56;;;;;;;4.00;2.80;;;;;;;-141.50;100.00;63355.56;5029766;28;20049;-80
2023/09/15 02:19:24;;;;;;;5.05;2.70;;;;;;;-141.50;100.00;63355.56;5026407;28;20068;-80
2023/09/15 02:21:51;;;;;;;4.97;2.88;;;;;;;-141.50;100.00;63355.56;5012926;28;20051;-79
2023/09/15 02:24:18;;;;;;;6.10;2.55;;;;;;;-141.50;100.00;63355.56;5026626;28;20045;-79
2023/09/15 02:26:44;;;;;;;5.30;2.80;;;;;;;-141.50;100.00;63355.56;5043722;28;21291;-79
2023/09/15 02:29:11;;;;;;;5.85;2.67;;;;;;;-141.50;100.00;63355.56;5030891;28;20049;-78
2023/09/15 02:31:40;;;;;;;5.30;3.20;;;;;;;-141.50;100.00;63355.56;5022081;28;20042;-78
2023/09/15 02:34:07;;;;;;;4.13;2.75;;;;;;;-141.50;100.00;63355.56;5030716;28;20073;-78
2023/09/15 02:36:33;;;;;;;4.32;2.50;;;;;;;-141.50;100.00;63355.56;5031967;28;20046;-78
2023/09/15 02:39:00;;;;;;;3.55;2.10;;;;;;;-141.50;100.00;63355.56;5030126;28;20476;-80
2023/09/15 02:41:27;;;;;;;4.03;2.50;;;;;;;-141.50;100.00;63355.56;5031095;28;20048;-80
2023/09/15 02:43:54;;;;;;;4.40;2.75;;;;;;;-141.50;100.00;63355.56;5047669;28;20515;-80
2023/09/15 02:46:21;;;;;;;4.05;2.50;;;;;;;-141.50;100.00;63355.56;5029070;28;20037;-78
2023/09/15 02:48:48;;;;;;;4.43;2.45;;;;;;;-141.50;100.00;63355.56;5021425;28;20038;-79
2023/09/15 02:51:15;;;;;;;4.70;2.22;;;;;;;-141.50;100.00;63355.56;5024068;28;20046;-79
2023/09/15 02:53:42;;;;;;;3.28;1.85;;;;;;;-141.50;100.00;63355.56;5027010;28;20474;-80
2023/09/15 02:56:09;;;;;;;3.05;2.10;;;;;;;-141.50;100.00;63355.56;5022242;28;20049;-81
2023/09/15 02:58:36;;;;;;;3.63;2.42;;;;;;;-141.50;100.00;63355.56;5029095;28;20038;-79
2023/09/15 03:01:15;;;;;;;4.57;2.00;;;;;;;-141.50;100.00;63355.56;5045749;28;20115;-79
2023/09/15 03:03:48;;;;;;;3.15;2.00;;;;;;;-141.50;100.00;63355.56;5031082;28;20103;-79
2023/09/15 03:06:16;;;;;;;3.70;2.15;;;;;;;-141.50;100.00;63355.56;5031039;28;20064;-80
2023/09/15 03:08:43;;;;;;;3.28;2.20;;;;;;;-141.50;100.00;63355.56;5031181;28;20153;-79
2023/09/15 03:11:13;;;;;;;2.85;2.08;;;;;;;-141.50;100.00;63355.56;5021436;28;20049;-80
2023/09/15 03:13:40;;;;;;;4.25;2.25;;;;;;;-141.50;100.00;63355.56;5031753;28;20120;-79
2023/09/15 03:16:14;;;;;;;2.92;1.90;;;;;;;-141.50;100.00;63355.56;5034069;28;20072;-79
2023/09/15 03:18:46;;;;;;;4.10;2.45;;;;;;;-141.50;100.00;63355.56;5034674;28;20049;-79
2023/09/15 03:21:15;;;;;;;3.88;2.22;;;;;;;-141.50;100.00;63355.56;5014527;28;20052;-79
2023/09/15 03:23:42;;;;;;;4.18;2.38;;;;;;;-141.50;100.00;63355.56;5030826;28;20550;-79
2023/09/15 03:26:09;;;;;;;3.83;2.20;;;;;;;-141.50;100.00;63355.56;5013636;28;20080;-80
2023/09/15 03:28:38;;;;;;;4.65;2.15;;;;;;;-141.50;100.00;63355.56;5034271;28;20460;-79
2023/09/15 03:31:05;;;;;;;3.58;2.05;;;;;;;-141.50;100.00;63355.56;5049077;28;21093;-80
2023/09/15 03:33:33;;;;;;;4.22;1.95;;;;;;;-141.50;100.00;63355.56;5036055;28;20045;-79
2023/09/15 03:36:00;;;;;;;3.75;2.58;;;;;;;-141.50;100.00;63355.56;5033182;28;20046;-79
2023/09/15 03:38:27;;;;;;;2.67;1.88;;;;;;;-141.50;100.00;63355.56;5033880;28;20103;-79
2023/09/15 03:40:55;;;;;;;2.60;1.77;;;;;;;-141.50;100.00;63355.56;5015352;28;20384;-79
2023/09/15 03:43:23;;;;;;;3.47;1.98;;;;;;;-141.50;100.00;63355.56;5032244;28;20047;-79
2023/09/15 03:45:51;;;;;;;3.65;2.13;;;;;;;-141.50;100.00;63355.56;5029400;28;20049;-80
2023/09/15 03:48:19;;;;;;;3.88;2.30;;;;;;;-141.50;100.00;63355.56;5030219;28;20037;-80
2023/09/15 03:50:47;;;;;;;4.35;2.08;;;;;;;-141.50;100.00;63355.56;5028190;28;20041;-81
2023/09/15 03:53:14;;;;;;;3.38;1.80;;;;;;;-141.50;100.00;63355.56;5028471;28;20091;-80
2023/09/15 03:55:40;;;;;;;3.20;1.83;;;;;;;-141.50;100.00;63355.56;5028616;28;20082;-80
2023/09/15 03:58:07;;;;;;;2.78;1.90;;;;;;;-141.50;100.00;63355.56;5028576;28;20300;-79
2023/09/15 04:00:34;;;;;;;3.58;2.05;;;;;;;-141.50;100.00;63355.56;5025715;28;20052;-80
2023/09/15 04:03:03;;;;;;;3.35;1.90;;;;;;;-141.50;100.00;63355.56;5044281;28;20042;-80
2023/09/15 04:05:31;;;;;;;3.65;1.80;;;;;;;-141.50;100.00;63355.56;5026148;28;20046;-79
2023/09/15 04:07:58;;;;;;;4.53;2.17;;;;;;;-141.50;100.00;63355.56;5027675;28;20053;-79
2023/09/15 04:10:25;;;;;;;4.90;2.50;;;;;;;-141.50;100.00;63355.56;5028560;28;20056;-79
2023/09/15 04:12:52;;;;;;;5.75;2.05;;;;;;;-141.50;100.00;63355.56;4996847;28;20103;-79
2023/09/15 04:15:19;;;;;;;2.78;1.38;;;;;;;-141.50;100.00;63355.56;5031299;28;20053;-78
2023/09/15 04:17:46;;;;;;;3.42;2.00;;;;;;;-141.50;100.00;63355.56;5028649;28;20056;-76
2023/09/15 04:20:13;;;;;;;4.45;2.30;;;;;;;-141.50;100.00;63355.56;5027009;28;20137;-76
2023/09/15 04:22:41;;;;;;;4.03;2.47;;;;;;;-141.50;100.00;63355.56;5012872;28;20167;-77
2023/09/15 04:25:08;;;;;;;3.17;1.75;;;;;;;-141.50;100.00;63355.56;5033559;28;20049;-78
2023/09/15 04:27:38;;;;;;;2.25;1.50;;;;;;;-141.50;100.00;63355.56;5032895;28;20049;-77
2023/09/15 04:30:07;;;;;;;2.88;1.80;;;;;;;-141.50;100.00;63355.56;5030163;28;20151;-80
2023/09/15 04:32:45;;;;;;;2.80;1.75;;;;;;;-141.50;100.00;63355.56;5028908;28;20075;-79
2023/09/15 04:35:13;;;;;;;2.67;1.65;;;;;;;-141.50;100.00;63355.56;5027163;28;20087;-79
2023/09/15 04:37:40;;;;;;;3.22;1.85;;;;;;;-141.50;100.00;63355.56;5028271;28;20037;-80
2023/09/15 04:40:08;;;;;;;3.45;1.80;;;;;;;-141.50;100.00;63355.56;5031489;28;20045;-80
2023/09/15 04:42:37;;;;;;;3.70;1.60;;;;;;;-141.50;100.00;63355.56;5027981;28;20046;-80
2023/09/15 04:45:07;;;;;;;2.88;1.50;;;;;;;-141.50;100.00;63355.56;5047090;28;20052;-80
2023/09/15 04:47:36;;;;;;;3.08;1.67;;;;;;;-141.50;100.00;63355.56;5030820;28;20041;-79
2023/09/15 04:50:14;;;;;;;3.22;1.63;;;;;;;-141.50;100.00;63355.56;5024066;28;20419;-77
2023/09/15 04:52:41;;;;;;;5.25;1.60;;;;;;;-141.50;100.00;63355.56;5008784;28;20594;-78
2023/09/15 04:55:08;;;;;;;2.20;1.35;;;;;;;-141.50;100.00;63355.56;5025352;28;20113;-76
2023/09/15 04:57:36;;;;;;;3.85;2.03;;;;;;;-141.50;100.00;63355.56;5042303;28;20049;-76
2023/09/15 05:00:12;;;;;;;3.58;1.98;;;;;;;-141.50;100.00;63355.56;5021657;28;20050;-76
2023/09/15 05:02:44;;;;;;;4.82;2.35;;;;;;;-141.50;100.00;63355.56;5020263;28;21795;-76
2023/09/15 05:05:13;;;;;;;4.65;1.90;;;;;;;-141.50;100.00;63355.56;5007067;28;20049;-77
2023/09/15 05:07:40;;;;;;;3.97;2.35;;;;;;;-141.50;100.00;63355.56;5033169;28;20053;-77
2023/09/15 05:10:08;;;;;;;3.05;1.88;;;;;;;-141.50;100.00;63355.56;5030392;28;20045;-77
2023/09/15 05:12:35;;;;;;;3.88;2.05;;;;;;;-141.50;100.00;63355.56;5027513;28;20048;-77
2023/09/15 05:15:03;;;;;;;4.95;2.08;;;;;;;-141.50;100.00;63355.56;5044601;28;20063;-80
2023/09/15 05:17:32;;;;;;;4.70;1.92;;;;;;;-141.50;100.00;63355.56;5026224;28;20060;-80
2023/09/15 05:19:59;;;;;;;3.05;2.03;;;;;;;-141.50;100.00;63355.56;5033304;28;20096;-78
2023/09/15 05:22:26;;;;;;;2.80;1.58;;;;;;;-141.50;100.00;63355.56;5047658;28;20055;-79
2023/09/15 05:24:55;;;;;;;3.72;1.80;;;;;;;-141.50;100.00;63355.56;5034107;28;20037;-80
2023/09/15 05:27:22;;;;;;;5.43;1.95;;;;;;;-141.50;100.00;63355.56;5034177;28;20033;-79
2023/09/15 05:29:50;;;;;;;4.85;2.10;;;;;;;-141.50;100.00;63355.56;5013468;28;20049;-77
2023/09/15 05:32:17;;;;;;;4.38;2.15;;;;;;;-141.50;100.00;63355.56;5030106;28;20045;-80
2023/09/15 05:34:44;;;;;;;5.68;2.03;;;;;;;-141.50;100.00;63355.56;5033321;28;20045;-80
2023/09/15 05:37:12;;;;;;;7.30;2.53;;;;;;;-141.50;100.00;63355.56;5032429;28;20073;-80
2023/09/15 05:39:39;;;;;;;3.63;2.10;;;;;;;-141.50;100.00;63355.56;5028166;28;20175;-81
2023/09/15 05:42:06;;;;;;;4.25;2.25;;;;;;;-141.50;100.00;63355.56;5028994;28;20071;-80
2023/09/15 05:44:33;;;;;;;5.43;2.70;;;;;;;-141.50;100.00;63355.56;5029092;28;20099;-81
2023/09/15 05:47:00;;;;;;;6.68;2.60;;;;;;;-141.50;100.00;63355.56;5029717;28;20049;-81
2023/09/15 05:49:27;;;;;;;4.22;2.08;;;;;;;-141.50;100.00;63355.56;5030818;28;20049;-81
2023/09/15 05:51:56;;;;;;;3.63;2.05;;;;;;;-141.50;100.00;63355.56;5025293;28;20045;-79
2023/09/15 05:54:26;;;;;;;4.00;2.20;;;;;;;-141.50;100.00;63355.56;5027398;28;20123;-81
2023/09/15 05:56:53;;;;;;;5.15;2.58;;;;;;;-141.50;100.00;63355.56;5028876;28;20049;-80
2023/09/15 05:59:20;;;;;;;3.22;2.00;;;;;;;-141.50;100.00;63355.56;5029505;28;20049;-81
2023/09/15 06:01:47;;;;;;;4.88;2.55;;;;;;;-141.50;100.00;63355.56;5027918;28;20068;-80
2023/09/15 06:04:15;;;;;;;3.42;2.00;;;;;;;-141.50;100.00;63355.56;5023026;28;20054;-81
2023/09/15 06:06:42;;;;;;;4.75;2.75;;;;;;;-141.50;100.00;63355.56;5025593;28;20041;-81
2023/09/15 06:09:09;;;;;;;4.38;2.25;;;;;;;-141.50;100.00;63355.56;5029163;28;20049;-81
2023/09/15 06:11:40;;;;;;;6.35;2.75;;;;;;;-141.50;100.00;63355.56;5013899;28;20041;-81
2023/09/15 06:14:07;;;;;;;3.95;2.35;;;;;;;-141.50;100.00;63355.56;5030489;28;20248;-81
2023/09/15 06:16:36;;;;;;;4.18;2.45;;;;;;;-141.50;100.00;63355.56;5025810;28;20052;-81
2023/09/15 06:19:03;;;;;;;5.93;2.80;;;;;;;-141.50;100.00;63355.56;5046263;28;20049;-79
2023/09/15 06:21:30;;;;;;;5.07;2.72;;;;;;;-141.50;100.00;63355.56;5014591;28;20072;-81
2023/09/15 06:23:56;;;;;;;4.82;2.63;;;;;;;-141.50;100.00;63355.56;5031575;28;20050;-80
2023/09/15 06:26:23;;;;;;;5.05;2.53;;;;;;;-141.50;100.00;63355.56;5030017;28;20038;-81
2023/09/15 06:28:50;;;;;;;5.93;2.97;;;;;;;-141.50;100.00;63355.56;5029741;28;20045;-80
2023/09/15 06:31:18;;;;;;;8.25;3.28;;;;;;;-141.50;100.00;63355.56;5029923;28;20038;-80
2023/09/15 06:33:45;;;;;;;6.50;3.88;;;;;;;-141.50;100.00;63355.56;5027752;28;20045;-80
2023/09/15 06:36:13;;;;;;;6.30;3.45;;;;;;;-141.50;100.00;63355.56;5030986;28;20033;-79
2023/09/15 06:38:40;;;;;;;7.95;3.33;;;;;;;-141.50;100.00;63355.56;5032084;28;20080;-80
2023/09/15 06:41:06;;;;;;;10.13;3.90;;;;;;;-141.50;100.00;63355.56;5042748;28;20037;-80
2023/09/15 06:43:33;;;;;;;8.85;4.05;;;;;;;-141.50;100.00;63355.56;5048959;28;20072;-79
2023/09/15 06:46:00;;;;;;;7.88;4.38;;;;;;;-141.50;100.00;63355.56;5045865;28;20046;-81
2023/09/15 06:48:27;;;;;;;6.40;4.22;;;;;;;-141.50;100.00;63355.56;5047494;28;20076;-79
2023/09/15 06:50:53;;;;;;;8.60;4.57;;;;;;;-141.50;100.00;63355.56;5042882;28;20145;-80
2023/09/15 06:53:20;;;;;;;9.98;4.82;;;;;;;-141.50;100.00;63355.56;5041444;28;20045;-80
2023/09/15 06:55:47;;;;;;;8.73;4.50;;;;;;;-141.50;100.00;63355.56;5038607;28;20144;-79
2023/09/15 06:58:13;;;;;;;8.30;4.38;;;;;;;-141.50;100.00;63355.56;5031340;28;20057;-80
2023/09/15 07:00:40;;;;;;;5.90;3.72;;;;;;;-141.50;100.00;63355.56;5046924;28;20049;-79
2023/09/15 07:03:07;;;;;;;8.20;4.45;;;;;;;-141.50;100.00;63355.56;5023753;28;20264;-80
2023/09/15 07:05:34;;;;;;;7.80;4.32;;;;;;;-141.50;100.00;63355.56;5027012;28;20475;-81
2023/09/15 07:08:00;;;;;;;8.27;4.65;;;;;;;-141.50;100.00;63355.56;5028518;28;20050;-80
2023/09/15 07:10:27;;;;;;;9.25;4.32;;;;;;;-141.50;100.00;63355.56;5029870;28;20270;-79
2023/09/15 07:12:54;;;;;;;9.65;4.18;;;;;;;-141.50;100.00;63355.56;5034622;28;20061;-80
2023/09/15 07:15:21;;;;;;;6.10;3.90;;;;;;;-141.50;100.00;63355.56;5028857;28;20124;-80
2023/09/15 07:17:48;;;;;;;8.95;4.07;;;;;;;-141.50;100.00;63355.56;5029638;28;20046;-81
2023/09/15 07:20:15;;;;;;;7.15;4.03;;;;;;;-141.50;100.00;63355.56;5030798;28;20057;-80
2023/09/15 07:22:42;;;;;;;7.90;4.15;;;;;;;-141.50;100.00;63355.56;5006968;28;20041;-80
2023/09/15 07:25:08;;;;;;;8.40;4.28;;;;;;;-141.50;100.00;63355.56;5028363;28;20512;-81
2023/09/15 07:27:35;;;;;;;8.00;3.70;;;;;;;-141.50;100.00;63355.56;5028572;28;20522;-80
2023/09/15 07:30:02;;;;;;;9.20;4.30;;;;;;;-141.50;100.00;63355.56;5017349;28;20431;-80
2023/09/15 07:32:29;;;;;;;8.50;3.45;;;;;;;-141.50;100.00;63355.56;5026091;28;20045;-80
2023/09/15 07:34:56;;;;;;;8.38;3.65;;;;;;;-141.50;100.00;63355.56;5029604;28;21830;-80
2023/09/15 07:37:23;;;;;;;7.57;3.40;;;;;;;-141.50;100.00;63355.56;5029010;28;20103;-80
2023/09/15 07:39:50;;;;;;;8.20;3.72;;;;;;;-141.50;100.00;63355.56;5026773;28;20538;-80
2023/09/15 07:42:16;;;;;;;6.80;3.50;;;;;;;-141.50;100.00;63355.56;5022691;28;20533;-81
2023/09/15 07:44:44;;;;;;;7.97;3.60;;;;;;;-141.50;100.00;63355.56;5018106;28;20048;-80
2023/09/15 07:47:14;;;;;;;8.05;3.88;;;;;;;-141.50;100.00;63355.56;5027489;28;21982;-80
2023/09/15 07:49:42;;;;;;;6.20;3.30;;;;;;;-141.50;100.00;63355.56;5019194;28;20121;-80
2023/09/15 07:52:09;;;;;;;7.25;3.55;;;;;;;-141.50;100.00;63355.56;5016762;28;20042;-80
2023/09/15 07:54:35;;;;;;;7.18;3.05;;;;;;;-141.50;100.00;63355.56;5040473;28;20053;-80
2023/09/15 07:57:03;;;;;;;6.03;2.83;;;;;;;-141.50;100.00;63355.56;5026840;28;20060;-80
2023/09/15 07:59:30;;;;;;;8.73;3.28;;;;;;;-141.50;100.00;63355.56;5027696;28;20053;-81
2023/09/15 08:01:57;;;;;;;4.88;2.83;;;;;;;-141.50;100.00;63355.56;5029448;28;20045;-80
2023/09/15 08:04:24;;;;;;;4.43;2.70;;;;;;;-141.50;100.00;63355.56;5027013;28;20072;-80
2023/09/15 08:06:51;;;;;;;6.20;3.30;;;;;;;-141.50;100.00;63355.56;5029044;28;20045;-79
2023/09/15 08:09:18;;;;;;;8.93;3.55;;;;;;;-141.50;100.00;63355.56;5042789;28;20061;-79
2023/09/15 08:11:45;;;;;;;6.07;3.03;;;;;;;-141.50;100.00;63355.56;5025530;28;20042;-81
2023/09/15 08:14:12;;;;;;;5.85;2.65;;;;;;;-141.50;100.00;63355.56;5034366;28;20060;-79
2023/09/15 08:16:38;;;;;;;7.28;2.85;;;;;;;-141.50;100.00;63355.56;5021355;28;20480;-81
2023/09/15 08:19:07;;;;;;;6.80;3.10;;;;;;;-141.50;100.00;63355.56;5019393;28;20121;-80
2023/09/15 08:21:34;;;;;;;4.38;2.45;;;;;;;-141.50;100.00;63355.56;5034996;28;20457;-81
2023/09/15 08:24:00;;;;;;;7.72;3.08;;;;;;;-141.50;100.00;63355.56;5017446;28;20406;-80
2023/09/15 08:26:27;;;;;;;5.65;2.63;;;;;;;-141.50;100.00;63355.56;5030948;28;20051;-80
2023/09/15 08:29:11;;;;;;;4.60;2.67;;;;;;;-141.50;100.00;63355.56;5030534;28;20132;-81
2023/09/15 08:31:39;;;;;;;4.88;2.95;;;;;;;-141.50;100.00;63355.56;5029971;28;20045;-81
2023/09/15 08:34:06;;;;;;;5.50;2.80;;;;;;;-141.50;100.00;63355.56;5031141;28;20049;-79
2023/09/15 08:36:32;;;;;;;5.18;2.88;;;;;;;-141.50;100.00;63355.56;5030202;28;20033;-77
2023/09/15 08:38:59;;;;;;;4.65;2.60;;;;;;;-141.50;100.00;63355.56;5027712;28;20130;-81
2023/09/15 08:41:32;;;;;;;4.15;2.75;;;;;;;-141.50;100.00;63355.56;5012003;28;20115;-79
2023/09/15 08:43:59;;;;;;;4.50;2.67;;;;;;;-141.50;100.00;63355.56;5025757;28;21040;-81
2023/09/15 08:46:30;;;;;;;5.63;2.85;;;;;;;-141.50;100.00;63355.56;5004525;28;20107;-80
2023/09/15 08:48:58;;;;;;;3.70;2.40;;;;;;;-141.50;100.00;63355.56;5027877;28;20693;-81
2023/09/15 08:51:26;;;;;;;5.40;2.47;;;;;;;-141.50;100.00;63355.56;5028277;28;20295;-81
2023/09/15 08:53:56;;;;;;;3.25;2.45;;;;;;;-141.50;100.00;63355.56;5027584;28;20416;-79
2023/09/15 08:56:23;;;;;;;4.80;2.40;;;;;;;-141.50;100.00;63355.56;5029076;28;20058;-79
2023/09/15 08:58:51;;;;;;;3.50;2.15;;;;;;;-141.50;100.00;63355.56;5026392;28;20061;-79
2023/09/15 09:01:19;;;;;;;6.05;2.78;;;;;;;-141.50;100.00;63355.56;5026980;28;20104;-80
2023/09/15 09:03:46;;;;;;;6.43;2.40;;;;;;;-141.50;100.00;63355.56;5026071;28;20050;-79
2023/09/15 09:06:16;;;;;;;4.55;2.38;;;;;;;-141.50;100.00;63355.56;5021520;28;20042;-79
2023/09/15 09:08:46;;;;;;;5.18;2.72;;;;;;;-141.50;100.00;63355.56;5043870;28;20483;-79
2023/09/15 09:11:14;;;;;;;3.80;2.40;;;;;;;-141.50;100.00;63355.56;5026906;28;20041;-80
2023/09/15 09:13:48;;;;;;;4.60;2.78;;;;;;;-141.50;100.00;63355.56;5028404;28;20041;-81
2023/09/15 09:16:16;;;;;;;4.13;2.58;;;;;;;-141.50;100.00;63355.56;5023717;28;20049;-80
2023/09/15 09:18:55;;;;;;;4.60;2.53;;;;;;;-141.50;100.00;63355.56;5023607;28;20050;-80
2023/09/15 09:21:29;;;;;;;6.38;2.97;;;;;;;-141.50;100.00;63355.56;5022220;28;20073;-77
2023/09/15 09:23:57;;;;;;;4.93;2.78;;;;;;;-141.50;100.00;63355.56;5026164;28;20429;-80
2023/09/15 09:26:24;;;;;;;4.38;2.47;;;;;;;-141.50;100.00;63355.56;5011082;28;20041;-79
2023/09/15 09:28:56;;;;;;;2.97;2.30;;;;;;;-141.50;100.00;63355.56;5027445;28;20423;-79
2023/09/15 09:31:27;;;;;;;4.75;2.58;;;;;;;-141.50;100.00;63355.56;5025650;28;20052;-79
2023/09/15 09:33:57;;;;;;;4.22;2.53;;;;;;;-141.50;100.00;63355.56;5029043;28;20048;-80
2023/09/15 09:36:24;;;;;;;4.00;2.33;;;;;;;-141.50;100.00;63355.56;5028923;28;20041;-79
2023/09/15 09:38:52;;;;;;;4.55;2.50;;;;;;;-141.50;100.00;63355.56;5026779;28;20049;-80
2023/09/15 09:41:20;;;;;;;6.25;2.78;;;;;;;-141.50;100.00;63355.56;5030597;28;20498;-78
2023/09/15 09:43:51;;;;;;;4.72;2.40;;;;;;;-141.50;100.00;63355.56;5028536;28;20061;-80
2023/09/15 09:46:21;;;;;;;3.97;2.30;;;;;;;-141.50;100.00;63355.56;5038038;28;20041;-78
2023/09/15 09:48:50;;;;;;;4.85;2.58;;;;;;;-141.50;100.00;63355.56;5027423;28;20486;-78
2023/09/15 09:51:18;;;;;;;5.20;2.50;;;;;;;-141.50;100.00;63355.56;5023202;28;20351;-79
2023/09/15 09:53:45;;;;;;;3.70;2.28;;;;;;;-141.50;100.00;63355.56;5007635;28;20048;-79
2023/09/15 09:56:12;;;;;;;4.38;2.30;;;;;;;-141.50;100.00;63355.56;5027039;28;20049;-80
2023/09/15 09:58:39;;;;;;;5.35;2.47;;;;;;;-141.50;100.00;63355.56;5028380;28;20073;-80
2023/09/15 10:01:06;;;;;;;3.75;2.30;;;;;;;-141.50;100.00;63355.56;5027118;28;20049;-79
2023/09/15 10:03:33;;;;;;;4.30;2.47;;;;;;;-141.50;100.00;63355.56;5023432;28;20581;-79
2023/09/15 10:06:00;;;;;;;3.63;2.53;;;;;;;-141.50;100.00;63355.56;5044284;28;20668;-80
2023/09/15 10:08:30;;;;;;;4.20;2.60;;;;;;;-141.50;100.00;63355.56;5027557;28;20042;-79
2023/09/15 10:10:58;;;;;;;3.45;2.10;;;;;;;-141.50;100.00;63355.56;5027711;28;20069;-79
2023/09/15 10:13:24;;;;;;;3.63;2.47;;;;;;;-141.50;100.00;63355.56;5027525;28;20068;-79
2023/09/15 10:15:53;;;;;;;4.55;2.30;;;;;;;-141.50;100.00;63355.56;5027965;28;20061;-78
2023/09/15 10:18:21;;;;;;;3.17;2.08;;;;;;;-141.50;100.00;63355.56;5010408;28;20068;-78
2023/09/15 10:20:51;;;;;;;4.88;2.63;;;;;;;-141.50;100.00;63355.56;5026356;28;20037;-79
2023/09/15 10:23:18;;;;;;;3.53;2.15;;;;;;;-141.50;100.00;63355.56;5026219;28;20037;-79
2023/09/15 10:25:50;;;;;;;3.17;2.20;;;;;;;-141.50;100.00;63355.56;5030325;28;20045;-78
2023/09/15 10:28:17;;;;;;;2.80;1.73;;;;;;;-141.50;100.00;63355.56;5024138;28;20230;-78
2023/09/15 10:31:05;;;;;;;2.72;2.15;;;;;;;-141.50;100.00;63355.56;5027554;28;20426;-78
2023/09/15 10:33:33;;;;;;;3.45;2.03;;;;;;;-141.50;100.00;63355.56;5025219;28;20263;-78
2023/09/15 10:36:04;;;;;;;4.43;2.20;;;;;;;-141.50;100.00;63355.56;5022005;28;20053;-79
2023/09/15 10:38:34;;;;;;;2.90;1.98;;;;;;;-141.50;100.00;63355.56;5027511;28;20053;-79
2023/09/15 10:41:05;;;;;;;2.72;2.00;;;;;;;-141.50;100.00;63355.56;5024708;28;20072;-79
2023/09/15 10:43:32;;;;;;;5.05;1.80;;;;;;;-141.50;100.00;63355.56;5028460;28;20052;-79
2023/09/15 10:46:04;;;;;;;2.80;1.67;;;;;;;-141.50;100.00;63355.56;5021108;28;20142;-78
2023/09/15 10:48:39;;;;;;;2.15;1.58;;;;;;;-141.50;100.00;63355.56;5025788;28;20057;-77
2023/09/15 10:51:08;;;;;;;3.38;1.70;;;;;;;-141.50;100.00;63355.56;5026835;28;20291;-77
2023/09/15 10:53:47;;;;;;;3.08;1.77;;;;;;;-141.50;100.00;63355.56;5025098;28;20049;-77
2023/09/15 10:56:16;;;;;;;2.53;1.80;;;;;;;-141.50;100.00;63355.56;5035726;28;21930;-79
2023/09/15 10:58:47;;;;;;;4.35;1.60;;;;;;;-141.50;100.00;63355.56;5029680;28;20422;-78
2023/09/15 11:01:16;;;;;;;2.40;1.45;;;;;;;-141.50;100.00;63355.56;5024914;28;20060;-78
2023/09/15 11:03:44;;;;;;;2.28;1.70;;;;;;;-141.50;100.00;63355.56;5028993;28;20045;-78
2023/09/15 11:06:13;;;;;;;2.35;1.70;;;;;;;-141.50;100.00;63355.56;5029884;28;20045;-79
2023/09/15 11:08:41;;;;;;;2.65;1.80;;;;;;;-141.50;100.00;63355.56;5029586;28;20049;-79
2023/09/15 11:11:11;;;;;;;3.88;1.75;;;;;;;-141.50;100.00;63355.56;5044561;28;20053;-78
2023/09/15 11:13:40;;;;;;;2.20;1.50;;;;;;;-141.50;100.00;63355.56;5029544;28;20416;-79
2023/09/15 11:16:08;;;;;;;2.60;1.75;;;;;;;-141.50;100.00;63355.56;5028745;28;20046;-79